sensor_id;sensor_type;location;lat;lon;timestamp;temperature;humidity
78366;HTU21D;67641;59.864;30.464;2023-09-19T00:00:23;25.47;69.40
78366;HTU21D;67641;59.864;30.464;2023-09-19T00:02:56;25.46;69.08
78366;HTU21D;67641;59.864;30.464;2023-09-19T00:05:23;25.49;69.18
78366;HTU21D;67641;59.864;30.464;2023-09-19T00:07:51;25.48;69.12
78366;HTU21D;67641;59.864;30.464;2023-09-19T00:10:25;25.51;68.79
78366;HTU21D;67641;59.864;30.464;2023-09-19T00:12:54;25.51;68.95
78366;HTU21D;67641;59.864;30.464;2023-09-19T00:15:26;25.50;68.53
78366;HTU21D;67641;59.864;30.464;2023-09-19T00:21:31;25.47;69.08
78366;HTU21D;67641;59.864;30.464;2023-09-19T00:23:58;25.46;68.91
78366;HTU21D;67641;59.864;30.464;2023-09-19T00:26:25;25.45;69.00
78366;HTU21D;67641;59.864;30.464;2023-09-19T00:28:55;25.44;68.41
78366;HTU21D;67641;59.864;30.464;2023-09-19T00:31:23;25.40;68.03
78366;HTU21D;67641;59.864;30.464;2023-09-19T00:33:49;25.35;67.27
78366;HTU21D;67641;59.864;30.464;2023-09-19T00:36:16;25.32;66.95
78366;HTU21D;67641;59.864;30.464;2023-09-19T00:38:43;25.29;67.33
78366;HTU21D;67641;59.864;30.464;2023-09-19T00:41:10;25.27;66.91
78366;HTU21D;67641;59.864;30.464;2023-09-19T00:43:39;25.24;67.13
78366;HTU21D;67641;59.864;30.464;2023-09-19T00:46:06;25.23;66.43
78366;HTU21D;67641;59.864;30.464;2023-09-19T00:48:40;25.20;66.56
78366;HTU21D;67641;59.864;30.464;2023-09-19T00:51:10;25.18;66.89
78366;HTU21D;67641;59.864;30.464;2023-09-19T00:53:38;25.13;66.99
78366;HTU21D;67641;59.864;30.464;2023-09-19T00:56:05;25.12;66.64
78366;HTU21D;67641;59.864;30.464;2023-09-19T00:58:33;25.07;66.51
78366;HTU21D;67641;59.864;30.464;2023-09-19T01:01:01;25.05;66.56
78366;HTU21D;67641;59.864;30.464;2023-09-19T01:03:29;25.04;66.17
78366;HTU21D;67641;59.864;30.464;2023-09-19T01:05:56;25.04;66.21
78366;HTU21D;67641;59.864;30.464;2023-09-19T01:08:22;25.02;66.17
78366;HTU21D;67641;59.864;30.464;2023-09-19T01:10:56;25.02;66.07
78366;HTU21D;67641;59.864;30.464;2023-09-19T01:16:42;25.04;66.11
78366;HTU21D;67641;59.864;30.464;2023-09-19T01:27:25;25.02;65.08
78366;HTU21D;67641;59.864;30.464;2023-09-19T01:30:11;25.00;65.03
78366;HTU21D;67641;59.864;30.464;2023-09-19T01:32:40;24.99;64.84
78366;HTU21D;67641;59.864;30.464;2023-09-19T01:35:07;24.98;64.86
78366;HTU21D;67641;59.864;30.464;2023-09-19T01:37:38;24.95;64.53
78366;HTU21D;67641;59.864;30.464;2023-09-19T01:40:07;24.93;64.59
78366;HTU21D;67641;59.864;30.464;2023-09-19T01:46:43;24.91;64.32
78366;HTU21D;67641;59.864;30.464;2023-09-19T01:52:10;24.86;64.08
78366;HTU21D;67641;59.864;30.464;2023-09-19T01:54:50;24.83;64.24
78366;HTU21D;67641;59.864;30.464;2023-09-19T01:57:27;24.80;63.76
78366;HTU21D;67641;59.864;30.464;2023-09-19T02:00:06;24.78;63.62
78366;HTU21D;67641;59.864;30.464;2023-09-19T02:02:40;24.77;63.69
78366;HTU21D;67641;59.864;30.464;2023-09-19T02:05:08;24.77;63.98
78366;HTU21D;67641;59.864;30.464;2023-09-19T02:07:35;24.77;63.51
78366;HTU21D;67641;59.864;30.464;2023-09-19T02:10:07;24.77;63.47
78366;HTU21D;67641;59.864;30.464;2023-09-19T02:12:36;24.76;63.47
78366;HTU21D;67641;59.864;30.464;2023-09-19T02:15:03;24.76;63.48
78366;HTU21D;67641;59.864;30.464;2023-09-19T02:17:33;24.76;63.44
78366;HTU21D;67641;59.864;30.464;2023-09-19T02:19:59;24.75;63.38
78366;HTU21D;67641;59.864;30.464;2023-09-19T02:22:27;24.71;63.30
78366;HTU21D;67641;59.864;30.464;2023-09-19T02:24:54;24.72;63.03
78366;HTU21D;67641;59.864;30.464;2023-09-19T02:27:20;24.69;62.75
78366;HTU21D;67641;59.864;30.464;2023-09-19T02:29:47;24.63;63.05
78366;HTU21D;67641;59.864;30.464;2023-09-19T02:32:15;24.61;63.18
78366;HTU21D;67641;59.864;30.464;2023-09-19T02:34:44;24.57;63.13
78366;HTU21D;67641;59.864;30.464;2023-09-19T02:37:11;24.56;63.30
78366;HTU21D;67641;59.864;30.464;2023-09-19T02:39:39;24.55;63.39
78366;HTU21D;67641;59.864;30.464;2023-09-19T02:42:06;24.55;63.34
78366;HTU21D;67641;59.864;30.464;2023-09-19T02:44:33;24.54;63.58
78366;HTU21D;67641;59.864;30.464;2023-09-19T02:47:00;24.53;63.36
78366;HTU21D;67641;59.864;30.464;2023-09-19T02:49:26;24.54;63.60
78366;HTU21D;67641;59.864;30.464;2023-09-19T02:51:53;24.54;63.48
78366;HTU21D;67641;59.864;30.464;2023-09-19T02:54:19;24.54;63.34
78366;HTU21D;67641;59.864;30.464;2023-09-19T02:56:46;24.54;63.34
78366;HTU21D;67641;59.864;30.464;2023-09-19T02:59:13;24.51;63.19
78366;HTU21D;67641;59.864;30.464;2023-09-19T03:01:43;24.53;63.05
78366;HTU21D;67641;59.864;30.464;2023-09-19T03:04:09;24.51;63.05
78366;HTU21D;67641;59.864;30.464;2023-09-19T03:06:37;24.49;62.98
78366;HTU21D;67641;59.864;30.464;2023-09-19T03:09:06;24.49;63.22
78366;HTU21D;67641;59.864;30.464;2023-09-19T03:11:40;24.49;62.79
78366;HTU21D;67641;59.864;30.464;2023-09-19T03:14:08;24.47;62.54
78366;HTU21D;67641;59.864;30.464;2023-09-19T03:16:36;24.47;62.42
78366;HTU21D;67641;59.864;30.464;2023-09-19T03:19:04;24.45;62.42
78366;HTU21D;67641;59.864;30.464;2023-09-19T03:21:31;24.44;62.57
78366;HTU21D;67641;59.864;30.464;2023-09-19T03:23:57;24.42;62.18
78366;HTU21D;67641;59.864;30.464;2023-09-19T03:26:24;24.41;62.28
78366;HTU21D;67641;59.864;30.464;2023-09-19T03:28:53;24.42;62.09
78366;HTU21D;67641;59.864;30.464;2023-09-19T03:31:20;24.45;62.15
78366;HTU21D;67641;59.864;30.464;2023-09-19T03:33:46;24.47;62.34
78366;HTU21D;67641;59.864;30.464;2023-09-19T03:36:13;24.46;62.15
78366;HTU21D;67641;59.864;30.464;2023-09-19T03:38:42;24.47;62.33
78366;HTU21D;67641;59.864;30.464;2023-09-19T03:41:08;24.48;62.18
78366;HTU21D;67641;59.864;30.464;2023-09-19T03:43:35;24.50;62.05
78366;HTU21D;67641;59.864;30.464;2023-09-19T03:46:02;24.55;61.93
78366;HTU21D;67641;59.864;30.464;2023-09-19T03:48:31;24.58;62.01
78366;HTU21D;67641;59.864;30.464;2023-09-19T03:50:58;24.62;62.16
78366;HTU21D;67641;59.864;30.464;2023-09-19T03:53:25;24.66;62.15
78366;HTU21D;67641;59.864;30.464;2023-09-19T03:55:51;24.69;61.99
78366;HTU21D;67641;59.864;30.464;2023-09-19T03:58:17;24.75;62.10
78366;HTU21D;67641;59.864;30.464;2023-09-19T04:00:44;24.82;62.03
78366;HTU21D;67641;59.864;30.464;2023-09-19T04:03:11;24.84;61.89
78366;HTU21D;67641;59.864;30.464;2023-09-19T04:05:45;24.84;62.05
78366;HTU21D;67641;59.864;30.464;2023-09-19T04:08:12;24.97;62.20
78366;HTU21D;67641;59.864;30.464;2023-09-19T04:10:43;25.14;61.86
78366;HTU21D;67641;59.864;30.464;2023-09-19T04:13:10;25.46;61.25
78366;HTU21D;67641;59.864;30.464;2023-09-19T04:15:37;25.82;60.15
78366;HTU21D;67641;59.864;30.464;2023-09-19T04:18:03;26.25;59.18
78366;HTU21D;67641;59.864;30.464;2023-09-19T04:20:30;26.62;58.35
78366;HTU21D;67641;59.864;30.464;2023-09-19T04:22:56;27.05;57.00
78366;HTU21D;67641;59.864;30.464;2023-09-19T04:25:23;27.54;55.73
78366;HTU21D;67641;59.864;30.464;2023-09-19T04:27:49;27.99;54.62
78366;HTU21D;67641;59.864;30.464;2023-09-19T04:30:16;28.50;53.43
78366;HTU21D;67641;59.864;30.464;2023-09-19T04:32:42;28.97;52.02
78366;HTU21D;67641;59.864;30.464;2023-09-19T04:35:10;29.44;50.81
78366;HTU21D;67641;59.864;30.464;2023-09-19T04:37:40;29.86;49.82
78366;HTU21D;67641;59.864;30.464;2023-09-19T04:40:08;30.25;49.33
78366;HTU21D;67641;59.864;30.464;2023-09-19T04:42:44;30.62;48.63
78366;HTU21D;67641;59.864;30.464;2023-09-19T04:45:10;30.98;47.84
78366;HTU21D;67641;59.864;30.464;2023-09-19T04:47:37;31.33;47.22
78366;HTU21D;67641;59.864;30.464;2023-09-19T04:50:09;31.70;46.68
78366;HTU21D;67641;59.864;30.464;2023-09-19T04:52:40;32.14;45.76
78366;HTU21D;67641;59.864;30.464;2023-09-19T04:55:12;32.52;45.52
78366;HTU21D;67641;59.864;30.464;2023-09-19T04:57:47;32.83;45.15
78366;HTU21D;67641;59.864;30.464;2023-09-19T05:00:14;32.91;45.44
78366;HTU21D;67641;59.864;30.464;2023-09-19T05:02:43;33.30;45.28
78366;HTU21D;67641;59.864;30.464;2023-09-19T05:05:10;33.59;45.82
78366;HTU21D;67641;59.864;30.464;2023-09-19T05:07:39;34.01;45.61
78366;HTU21D;67641;59.864;30.464;2023-09-19T05:10:07;34.37;45.22
78366;HTU21D;67641;59.864;30.464;2023-09-19T05:12:34;34.69;44.84
78366;HTU21D;67641;59.864;30.464;2023-09-19T05:15:05;34.94;44.46
78366;HTU21D;67641;59.864;30.464;2023-09-19T05:17:35;35.07;45.10
78366;HTU21D;67641;59.864;30.464;2023-09-19T05:20:02;35.08;44.97
78366;HTU21D;67641;59.864;30.464;2023-09-19T05:22:32;35.19;44.72
78366;HTU21D;67641;59.864;30.464;2023-09-19T05:24:59;35.41;44.40
78366;HTU21D;67641;59.864;30.464;2023-09-19T05:27:25;35.69;43.86
78366;HTU21D;67641;59.864;30.464;2023-09-19T05:29:52;35.98;42.84
78366;HTU21D;67641;59.864;30.464;2023-09-19T05:32:19;35.47;44.92
78366;HTU21D;67641;59.864;30.464;2023-09-19T05:34:46;35.18;45.70
78366;HTU21D;67641;59.864;30.464;2023-09-19T05:37:19;35.54;44.92
78366;HTU21D;67641;59.864;30.464;2023-09-19T05:39:46;35.80;44.70
78366;HTU21D;67641;59.864;30.464;2023-09-19T05:42:12;35.77;44.82
78366;HTU21D;67641;59.864;30.464;2023-09-19T05:44:40;35.53;45.57
78366;HTU21D;67641;59.864;30.464;2023-09-19T05:47:06;35.31;46.16
78366;HTU21D;67641;59.864;30.464;2023-09-19T05:49:35;35.50;45.45
78366;HTU21D;67641;59.864;30.464;2023-09-19T05:52:08;36.19;44.24
78366;HTU21D;67641;59.864;30.464;2023-09-19T05:54:34;36.76;43.03
78366;HTU21D;67641;59.864;30.464;2023-09-19T05:57:01;36.46;43.17
78366;HTU21D;67641;59.864;30.464;2023-09-19T05:59:28;36.55;42.81
78366;HTU21D;67641;59.864;30.464;2023-09-19T06:01:54;36.68;42.65
78366;HTU21D;67641;59.864;30.464;2023-09-19T06:04:21;37.08;41.77
78366;HTU21D;67641;59.864;30.464;2023-09-19T06:06:47;36.56;42.29
78366;HTU21D;67641;59.864;30.464;2023-09-19T06:09:15;36.28;43.08
78366;HTU21D;67641;59.864;30.464;2023-09-19T06:11:42;35.92;43.91
78366;HTU21D;67641;59.864;30.464;2023-09-19T06:14:08;36.02;43.67
78366;HTU21D;67641;59.864;30.464;2023-09-19T06:16:36;35.35;45.34
78366;HTU21D;67641;59.864;30.464;2023-09-19T06:19:07;35.24;45.65
78366;HTU21D;67641;59.864;30.464;2023-09-19T06:21:35;34.94;46.51
78366;HTU21D;67641;59.864;30.464;2023-09-19T06:24:02;34.42;47.76
78366;HTU21D;67641;59.864;30.464;2023-09-19T06:26:29;34.38;48.12
78366;HTU21D;67641;59.864;30.464;2023-09-19T06:28:57;34.62;47.68
78366;HTU21D;67641;59.864;30.464;2023-09-19T06:31:23;34.48;48.11
78366;HTU21D;67641;59.864;30.464;2023-09-19T06:33:52;34.88;47.15
78366;HTU21D;67641;59.864;30.464;2023-09-19T06:36:19;35.14;46.24
78366;HTU21D;67641;59.864;30.464;2023-09-19T06:38:46;35.45;45.70
78366;HTU21D;67641;59.864;30.464;2023-09-19T06:41:13;35.67;44.72
78366;HTU21D;67641;59.864;30.464;2023-09-19T06:43:40;36.40;43.36
78366;HTU21D;67641;59.864;30.464;2023-09-19T06:46:07;36.85;42.68
78366;HTU21D;67641;59.864;30.464;2023-09-19T06:48:33;37.29;41.57
78366;HTU21D;67641;59.864;30.464;2023-09-19T06:51:00;37.41;41.36
78366;HTU21D;67641;59.864;30.464;2023-09-19T06:53:34;37.73;40.85
78366;HTU21D;67641;59.864;30.464;2023-09-19T06:56:02;37.48;40.99
78366;HTU21D;67641;59.864;30.464;2023-09-19T06:58:29;37.38;41.63
78366;HTU21D;67641;59.864;30.464;2023-09-19T07:00:57;37.82;40.72
78366;HTU21D;67641;59.864;30.464;2023-09-19T07:03:24;38.66;39.04
78366;HTU21D;67641;59.864;30.464;2023-09-19T07:05:52;38.88;38.55
78366;HTU21D;67641;59.864;30.464;2023-09-19T07:08:22;38.36;39.56
78366;HTU21D;67641;59.864;30.464;2023-09-19T07:10:49;37.72;41.04
78366;HTU21D;67641;59.864;30.464;2023-09-19T07:13:18;37.07;42.37
78366;HTU21D;67641;59.864;30.464;2023-09-19T07:15:45;36.91;42.84
78366;HTU21D;67641;59.864;30.464;2023-09-19T07:18:16;36.34;44.32
78366;HTU21D;67641;59.864;30.464;2023-09-19T07:20:44;35.94;45.39
78366;HTU21D;67641;59.864;30.464;2023-09-19T07:23:20;36.38;44.45
78366;HTU21D;67641;59.864;30.464;2023-09-19T07:25:47;36.17;44.96
78366;HTU21D;67641;59.864;30.464;2023-09-19T07:28:15;35.84;46.11
78366;HTU21D;67641;59.864;30.464;2023-09-19T07:30:41;35.96;45.61
78366;HTU21D;67641;59.864;30.464;2023-09-19T07:33:08;35.50;46.84
78366;HTU21D;67641;59.864;30.464;2023-09-19T07:35:38;35.48;46.60
78366;HTU21D;67641;59.864;30.464;2023-09-19T07:38:07;35.69;45.93
78366;HTU21D;67641;59.864;30.464;2023-09-19T07:40:34;35.86;45.23
78366;HTU21D;67641;59.864;30.464;2023-09-19T07:43:01;35.93;45.33
78366;HTU21D;67641;59.864;30.464;2023-09-19T07:45:32;35.25;46.47
78366;HTU21D;67641;59.864;30.464;2023-09-19T07:47:59;35.35;46.55
78366;HTU21D;67641;59.864;30.464;2023-09-19T07:50:30;35.22;47.19
78366;HTU21D;67641;59.864;30.464;2023-09-19T07:52:56;35.38;46.79
78366;HTU21D;67641;59.864;30.464;2023-09-19T07:55:23;35.38;46.84
78366;HTU21D;67641;59.864;30.464;2023-09-19T07:57:52;35.23;47.29
78366;HTU21D;67641;59.864;30.464;2023-09-19T08:00:18;34.91;47.55
78366;HTU21D;67641;59.864;30.464;2023-09-19T08:02:44;34.51;48.85
78366;HTU21D;67641;59.864;30.464;2023-09-19T08:05:12;34.42;49.18
78366;HTU21D;67641;59.864;30.464;2023-09-19T08:07:43;34.31;49.73
78366;HTU21D;67641;59.864;30.464;2023-09-19T08:10:09;34.16;50.43
78366;HTU21D;67641;59.864;30.464;2023-09-19T08:12:42;33.86;50.76
78366;HTU21D;67641;59.864;30.464;2023-09-19T08:17:39;33.81;50.74
78366;HTU21D;67641;59.864;30.464;2023-09-19T08:20:06;33.86;50.49
78366;HTU21D;67641;59.864;30.464;2023-09-19T08:22:33;34.10;49.81
78366;HTU21D;67641;59.864;30.464;2023-09-19T08:24:59;33.71;51.02
78366;HTU21D;67641;59.864;30.464;2023-09-19T08:27:25;33.71;50.80
78366;HTU21D;67641;59.864;30.464;2023-09-19T08:29:54;33.56;51.82
78366;HTU21D;67641;59.864;30.464;2023-09-19T08:32:20;33.25;52.38
78366;HTU21D;67641;59.864;30.464;2023-09-19T08:34:50;33.36;52.01
78366;HTU21D;67641;59.864;30.464;2023-09-19T08:37:16;33.66;51.49
78366;HTU21D;67641;59.864;30.464;2023-09-19T08:39:43;33.93;50.70
78366;HTU21D;67641;59.864;30.464;2023-09-19T08:42:10;33.95;50.24
78366;HTU21D;67641;59.864;30.464;2023-09-19T08:44:38;33.38;51.35
78366;HTU21D;67641;59.864;30.464;2023-09-19T08:47:10;32.89;52.87
78366;HTU21D;67641;59.864;30.464;2023-09-19T08:52:48;33.41;51.21
78366;HTU21D;67641;59.864;30.464;2023-09-19T08:55:14;33.62;50.76
78366;HTU21D;67641;59.864;30.464;2023-09-19T08:57:51;33.83;49.98
78366;HTU21D;67641;59.864;30.464;2023-09-19T09:00:18;34.17;49.24
78366;HTU21D;67641;59.864;30.464;2023-09-19T09:02:47;34.37;49.04
78366;HTU21D;67641;59.864;30.464;2023-09-19T09:05:13;34.76;48.22
78366;HTU21D;67641;59.864;30.464;2023-09-19T09:07:42;34.95;46.99
78366;HTU21D;67641;59.864;30.464;2023-09-19T09:10:10;34.65;48.31
78366;HTU21D;67641;59.864;30.464;2023-09-19T09:12:36;34.95;47.54
78366;HTU21D;67641;59.864;30.464;2023-09-19T09:15:03;34.82;47.42
78366;HTU21D;67641;59.864;30.464;2023-09-19T09:17:30;34.89;47.03
78366;HTU21D;67641;59.864;30.464;2023-09-19T09:19:56;34.86;47.23
78366;HTU21D;67641;59.864;30.464;2023-09-19T09:22:22;35.11;46.80
78366;HTU21D;67641;59.864;30.464;2023-09-19T09:24:53;35.57;45.77
78366;HTU21D;67641;59.864;30.464;2023-09-19T09:27:20;35.89;44.35
78366;HTU21D;67641;59.864;30.464;2023-09-19T09:29:50;36.04;44.57
78366;HTU21D;67641;59.864;30.464;2023-09-19T09:35:00;37.14;42.19
78366;HTU21D;67641;59.864;30.464;2023-09-19T09:37:27;37.85;40.82
78366;HTU21D;67641;59.864;30.464;2023-09-19T09:39:57;37.61;41.42
78366;HTU21D;67641;59.864;30.464;2023-09-19T09:42:35;38.56;39.25
78366;HTU21D;67641;59.864;30.464;2023-09-19T09:45:21;37.73;40.68
78366;HTU21D;67641;59.864;30.464;2023-09-19T09:48:00;37.61;40.09
78366;HTU21D;67641;59.864;30.464;2023-09-19T09:50:31;38.54;38.45
78366;HTU21D;67641;59.864;30.464;2023-09-19T09:53:34;38.54;38.35
78366;HTU21D;67641;59.864;30.464;2023-09-19T09:56:09;38.82;37.82
78366;HTU21D;67641;59.864;30.464;2023-09-19T09:58:51;38.25;39.10
78366;HTU21D;67641;59.864;30.464;2023-09-19T10:01:20;38.25;39.18
78366;HTU21D;67641;59.864;30.464;2023-09-19T10:03:57;37.80;40.16
78366;HTU21D;67641;59.864;30.464;2023-09-19T10:06:24;38.53;38.34
78366;HTU21D;67641;59.864;30.464;2023-09-19T10:09:04;38.75;37.75
78366;HTU21D;67641;59.864;30.464;2023-09-19T10:11:44;37.94;39.42
78366;HTU21D;67641;59.864;30.464;2023-09-19T10:14:17;38.23;39.36
78366;HTU21D;67641;59.864;30.464;2023-09-19T10:16:47;38.53;38.28
78366;HTU21D;67641;59.864;30.464;2023-09-19T10:20:04;37.66;40.31
78366;HTU21D;67641;59.864;30.464;2023-09-19T10:22:14;37.76;40.63
78366;HTU21D;67641;59.864;30.464;2023-09-19T10:24:47;37.74;40.39
78366;HTU21D;67641;59.864;30.464;2023-09-19T10:27:18;37.58;41.26
78366;HTU21D;67641;59.864;30.464;2023-09-19T10:29:49;37.89;40.04
78366;HTU21D;67641;59.864;30.464;2023-09-19T10:32:21;38.22;39.49
78366;HTU21D;67641;59.864;30.464;2023-09-19T10:34:49;38.11;39.86
78366;HTU21D;67641;59.864;30.464;2023-09-19T10:37:17;38.17;39.46
78366;HTU21D;67641;59.864;30.464;2023-09-19T10:39:47;37.99;39.91
78366;HTU21D;67641;59.864;30.464;2023-09-19T10:42:19;38.14;40.23
78366;HTU21D;67641;59.864;30.464;2023-09-19T10:44:47;38.19;39.92
78366;HTU21D;67641;59.864;30.464;2023-09-19T10:47:15;37.52;41.28
78366;HTU21D;67641;59.864;30.464;2023-09-19T10:49:45;38.00;40.08
78366;HTU21D;67641;59.864;30.464;2023-09-19T10:52:16;38.24;39.85
78366;HTU21D;67641;59.864;30.464;2023-09-19T10:54:47;38.37;39.13
78366;HTU21D;67641;59.864;30.464;2023-09-19T10:57:24;38.41;39.00
78366;HTU21D;67641;59.864;30.464;2023-09-19T11:00:06;37.79;39.19
78366;HTU21D;67641;59.864;30.464;2023-09-19T11:05:38;35.81;43.24
78366;HTU21D;67641;59.864;30.464;2023-09-19T11:08:10;35.51;44.57
78366;HTU21D;67641;59.864;30.464;2023-09-19T11:10:48;35.33;45.19
78366;HTU21D;67641;59.864;30.464;2023-09-19T11:13:28;34.64;46.76
78366;HTU21D;67641;59.864;30.464;2023-09-19T11:26:51;32.54;52.14
78366;HTU21D;67641;59.864;30.464;2023-09-19T11:31:52;32.31;52.29
78366;HTU21D;67641;59.864;30.464;2023-09-19T11:42:43;31.67;53.73
78366;HTU21D;67641;59.864;30.464;2023-09-19T11:48:24;31.41;54.73
78366;HTU21D;67641;59.864;30.464;2023-09-19T11:50:54;31.36;54.94
78366;HTU21D;67641;59.864;30.464;2023-09-19T11:53:23;31.09;55.95
78366;HTU21D;67641;59.864;30.464;2023-09-19T11:55:50;31.10;55.61
78366;HTU21D;67641;59.864;30.464;2023-09-19T11:58:19;31.15;55.34
78366;HTU21D;67641;59.864;30.464;2023-09-19T12:00:53;31.13;55.77
78366;HTU21D;67641;59.864;30.464;2023-09-19T12:03:21;30.92;55.33
78366;HTU21D;67641;59.864;30.464;2023-09-19T12:05:49;30.80;56.33
78366;HTU21D;67641;59.864;30.464;2023-09-19T12:08:15;30.78;57.17
78366;HTU21D;67641;59.864;30.464;2023-09-19T12:10:48;30.77;57.08
78366;HTU21D;67641;59.864;30.464;2023-09-19T12:13:21;30.81;57.21
78366;HTU21D;67641;59.864;30.464;2023-09-19T12:15:48;30.79;57.00
78366;HTU21D;67641;59.864;30.464;2023-09-19T12:18:28;30.86;56.33
78366;HTU21D;67641;59.864;30.464;2023-09-19T12:20:56;31.00;55.38
78366;HTU21D;67641;59.864;30.464;2023-09-19T12:23:24;31.34;54.31
78366;HTU21D;67641;59.864;30.464;2023-09-19T12:25:52;31.37;53.79
78366;HTU21D;67641;59.864;30.464;2023-09-19T12:28:26;31.54;53.48
78366;HTU21D;67641;59.864;30.464;2023-09-19T12:30:53;31.96;51.69
78366;HTU21D;67641;59.864;30.464;2023-09-19T12:33:23;32.04;51.36
78366;HTU21D;67641;59.864;30.464;2023-09-19T12:35:52;31.94;51.37
78366;HTU21D;67641;59.864;30.464;2023-09-19T12:40:52;31.54;53.04
78366;HTU21D;67641;59.864;30.464;2023-09-19T12:43:19;31.42;53.59
78366;HTU21D;67641;59.864;30.464;2023-09-19T12:45:46;31.48;53.65
78366;HTU21D;67641;59.864;30.464;2023-09-19T12:48:23;31.41;54.12
78366;HTU21D;67641;59.864;30.464;2023-09-19T12:53:46;31.29;53.39
78366;HTU21D;67641;59.864;30.464;2023-09-19T12:56:16;31.18;53.80
78366;HTU21D;67641;59.864;30.464;2023-09-19T12:58:55;31.31;53.51
78366;HTU21D;67641;59.864;30.464;2023-09-19T13:01:22;31.33;53.72
78366;HTU21D;67641;59.864;30.464;2023-09-19T13:04:18;31.16;54.04
78366;HTU21D;67641;59.864;30.464;2023-09-19T13:06:46;31.20;53.94
78366;HTU21D;67641;59.864;30.464;2023-09-19T13:09:16;32.09;51.72
78366;HTU21D;67641;59.864;30.464;2023-09-19T13:11:43;33.13;48.81
78366;HTU21D;67641;59.864;30.464;2023-09-19T13:19:45;34.25;46.57
78366;HTU21D;67641;59.864;30.464;2023-09-19T13:22:43;34.29;47.42
78366;HTU21D;67641;59.864;30.464;2023-09-19T13:25:17;34.57;46.68
78366;HTU21D;67641;59.864;30.464;2023-09-19T13:27:50;34.56;47.42
78366;HTU21D;67641;59.864;30.464;2023-09-19T13:30:19;33.77;49.32
78366;HTU21D;67641;59.864;30.464;2023-09-19T13:32:46;33.07;51.49
78366;HTU21D;67641;59.864;30.464;2023-09-19T13:35:14;32.22;53.12
78366;HTU21D;67641;59.864;30.464;2023-09-19T13:37:42;31.63;55.08
78366;HTU21D;67641;59.864;30.464;2023-09-19T13:40:13;31.31;55.78
78366;HTU21D;67641;59.864;30.464;2023-09-19T13:42:41;31.01;56.73
78366;HTU21D;67641;59.864;30.464;2023-09-19T13:45:08;30.77;57.32
78366;HTU21D;67641;59.864;30.464;2023-09-19T13:47:38;30.55;58.20
78366;HTU21D;67641;59.864;30.464;2023-09-19T13:50:05;30.37;58.32
78366;HTU21D;67641;59.864;30.464;2023-09-19T13:52:32;30.25;59.17
78366;HTU21D;67641;59.864;30.464;2023-09-19T13:54:59;30.21;60.29
78366;HTU21D;67641;59.864;30.464;2023-09-19T13:57:26;30.05;60.19
78366;HTU21D;67641;59.864;30.464;2023-09-19T13:59:53;30.04;60.77
78366;HTU21D;67641;59.864;30.464;2023-09-19T14:02:23;30.06;59.61
78366;HTU21D;67641;59.864;30.464;2023-09-19T14:04:51;30.01;59.96
78366;HTU21D;67641;59.864;30.464;2023-09-19T14:07:18;29.83;60.57
78366;HTU21D;67641;59.864;30.464;2023-09-19T14:09:46;29.81;60.23
78366;HTU21D;67641;59.864;30.464;2023-09-19T14:12:13;29.81;60.02
78366;HTU21D;67641;59.864;30.464;2023-09-19T14:14:40;29.83;59.90
78366;HTU21D;67641;59.864;30.464;2023-09-19T14:17:06;29.90;58.85
78366;HTU21D;67641;59.864;30.464;2023-09-19T14:19:33;29.91;59.59
78366;HTU21D;67641;59.864;30.464;2023-09-19T14:22:01;29.97;58.83
78366;HTU21D;67641;59.864;30.464;2023-09-19T14:24:33;29.91;58.22
78366;HTU21D;67641;59.864;30.464;2023-09-19T14:27:00;29.89;57.90
78366;HTU21D;67641;59.864;30.464;2023-09-19T14:29:27;30.03;57.87
78366;HTU21D;67641;59.864;30.464;2023-09-19T14:31:54;30.22;57.32
78366;HTU21D;67641;59.864;30.464;2023-09-19T14:34:23;30.25;57.61
78366;HTU21D;67641;59.864;30.464;2023-09-19T14:36:49;30.37;57.15
78366;HTU21D;67641;59.864;30.464;2023-09-19T14:39:16;30.33;57.35
78366;HTU21D;67641;59.864;30.464;2023-09-19T14:41:42;30.36;57.22
78366;HTU21D;67641;59.864;30.464;2023-09-19T14:44:09;30.17;57.49
78366;HTU21D;67641;59.864;30.464;2023-09-19T14:46:37;30.00;58.04
78366;HTU21D;67641;59.864;30.464;2023-09-19T14:49:03;29.92;58.13
78366;HTU21D;67641;59.864;30.464;2023-09-19T14:51:30;29.95;57.80
78366;HTU21D;67641;59.864;30.464;2023-09-19T14:53:57;29.92;57.90
78366;HTU21D;67641;59.864;30.464;2023-09-19T14:56:24;29.90;58.41
78366;HTU21D;67641;59.864;30.464;2023-09-19T14:58:51;29.94;58.45
78366;HTU21D;67641;59.864;30.464;2023-09-19T15:01:18;29.89;58.43
78366;HTU21D;67641;59.864;30.464;2023-09-19T15:03:44;29.82;58.13
78366;HTU21D;67641;59.864;30.464;2023-09-19T15:06:12;29.70;58.38
78366;HTU21D;67641;59.864;30.464;2023-09-19T15:08:47;29.51;58.80
78366;HTU21D;67641;59.864;30.464;2023-09-19T15:11:14;29.47;58.64
78366;HTU21D;67641;59.864;30.464;2023-09-19T15:13:44;29.50;58.77
78366;HTU21D;67641;59.864;30.464;2023-09-19T15:16:11;29.49;58.99
78366;HTU21D;67641;59.864;30.464;2023-09-19T15:18:40;29.45;59.61
78366;HTU21D;67641;59.864;30.464;2023-09-19T15:21:09;29.42;59.89
78366;HTU21D;67641;59.864;30.464;2023-09-19T15:23:37;29.34;60.28
78366;HTU21D;67641;59.864;30.464;2023-09-19T15:26:05;29.19;61.10
78366;HTU21D;67641;59.864;30.464;2023-09-19T15:28:32;29.02;61.78
78366;HTU21D;67641;59.864;30.464;2023-09-19T15:31:00;29.00;61.98
78366;HTU21D;67641;59.864;30.464;2023-09-19T15:33:27;29.04;61.86
78366;HTU21D;67641;59.864;30.464;2023-09-19T15:36:11;29.05;61.77
78366;HTU21D;67641;59.864;30.464;2023-09-19T15:41:35;28.94;62.52
78366;HTU21D;67641;59.864;30.464;2023-09-19T15:44:15;28.76;62.50
78366;HTU21D;67641;59.864;30.464;2023-09-19T15:46:43;28.70;62.79
78366;HTU21D;67641;59.864;30.464;2023-09-19T15:49:11;28.59;63.93
78366;HTU21D;67641;59.864;30.464;2023-09-19T15:51:38;28.59;64.40
78366;HTU21D;67641;59.864;30.464;2023-09-19T15:54:11;28.64;64.67
78366;HTU21D;67641;59.864;30.464;2023-09-19T15:56:44;28.59;64.88
78366;HTU21D;67641;59.864;30.464;2023-09-19T15:59:11;28.60;64.96
78366;HTU21D;67641;59.864;30.464;2023-09-19T16:01:39;28.59;64.86
78366;HTU21D;67641;59.864;30.464;2023-09-19T16:04:17;28.47;65.15
78366;HTU21D;67641;59.864;30.464;2023-09-19T16:06:43;28.41;65.91
78366;HTU21D;67641;59.864;30.464;2023-09-19T16:09:10;28.35;66.20
78366;HTU21D;67641;59.864;30.464;2023-09-19T16:11:37;28.28;66.50
78366;HTU21D;67641;59.864;30.464;2023-09-19T16:14:04;28.26;66.53
78366;HTU21D;67641;59.864;30.464;2023-09-19T16:16:32;28.28;66.53
78366;HTU21D;67641;59.864;30.464;2023-09-19T16:19:02;28.19;66.94
78366;HTU21D;67641;59.864;30.464;2023-09-19T16:21:30;28.13;67.43
78366;HTU21D;67641;59.864;30.464;2023-09-19T16:23:58;28.13;67.01
78366;HTU21D;67641;59.864;30.464;2023-09-19T16:26:26;28.14;67.17